Montebello, Virginia
Current Conditions -  °F | °C
As of 1:55 PM on Thursday 23 Oct 2014 (Local Time) from KW13 Reporting Station
Clear Clear  
Wind Chill: 61°   Ceiling: Unl
Heat Index: 61°   Visibility: 10mi
Dew Point: 42°   Wind: 13mph
Humidity: 49%   Direction: 330°NNW
Pressure: 29.96"   Gusts: 18mph
Location:  37.86°N, 79.14°W
Report Text: KW13 231755Z AUTO 33011G16KT 10SM CLR 16/06 A2996 RMK AO1 T01620055 10162 20073
Loading
Personal Weather Stations






























Interactive Weather Map
Tropical Storm Tracking
New forecast layout! Learn more

10-Day Weather Forecast

Advertisements
Track Severe Weather on mobile